Steveston Lifeboat — VOQQ — position and weather

sailwx.info

Track history (hours):
 
Tides and Currents Weather Stations Pressure Air Temp Water Temp Dewpoint Dewpoint Depression Visibility Wind Speed Wind Dir Waves Ship Positions

Steveston Lifeboat

Last reported at 2014-Jul-20 21:24 UTC. Time now 2014-Jul-24 21:40 UTC.
Position N 49°07' W 123°11'.

Length 15 m.

Type: SAR. MMSI: 316012135.

Date/timePositionNaut miles runAvg speedWind from/ knotsBaromVisibWave heightAir tempDewpointWater temp
2014-Jul-20 21:24N 49°07' W 123°11'5 5.8
2014-Jul-20 20:33N 49°06' W 123°18'8 8.4
2014-Jul-20 19:33N 49°09' W 123°30'9 9.0
2014-Jul-20 18:34N 49°12' W 123°43'8 7.8
2014-Jul-20 17:33N 49°10' W 123°55'  
2014-Jul-16 23:10N 49°11' W 123°56'3 4.9
2014-Jul-16 22:32N 49°14' W 123°56'9 9.5
2014-Jul-16 21:33N 49°22' W 124°03'9 8.9
2014-Jul-16 20:33N 49°29' W 124°11'0 0.0
2014-Jul-15 22:06N 49°29' W 124°11'2 4.4
2014-Jul-15 21:33N 49°29' W 124°08'6 6.0
2014-Jul-15 20:33N 49°35' W 124°06'4 0.1
2014-Jul-13 19:15N 49°38' W 124°02'2 3.5
2014-Jul-13 18:33N 49°37' W 124°05'7 6.9
2014-Jul-13 17:33N 49°31' W 123°59'1 0.0
2014-Jul-12 23:33N 49°31' W 124°00'7 6.7
2014-Jul-12 22:34N 49°30' W 124°10'2 0.1
2014-Jul-11 22:33N 49°28' W 124°08'9 8.7
2014-Jul-11 21:33N 49°21' W 123°60'8 8.1
2014-Jul-11 20:33N 49°14' W 123°55'  
Track history (hours):
 
Tides and Currents Weather Stations Pressure Air Temp Water Temp Dewpoint Dewpoint Depression Visibility Wind Speed Wind Dir Waves Ship Positions

Steveston Lifeboat

Last reported at 2014-Jul-20 21:24 UTC. Time now 2014-Jul-24 21:40 UTC.
Position N 49°07' W 123°11'.

Length 15 m.

Type: SAR. MMSI: 316012135.

Date/timePositionNaut miles runAvg speedWind from/ knotsBaromVisibWave heightAir tempDewpointWater temp
2014-Jul-20 21:24N 49°07' W 123°11'5 5.8
2014-Jul-20 20:33N 49°06' W 123°18'8 8.4
2014-Jul-20 19:33N 49°09' W 123°30'9 9.0
2014-Jul-20 18:34N 49°12' W 123°43'8 7.8
2014-Jul-20 17:33N 49°10' W 123°55'  
2014-Jul-16 23:10N 49°11' W 123°56'3 4.9
2014-Jul-16 22:32N 49°14' W 123°56'9 9.5
2014-Jul-16 21:33N 49°22' W 124°03'9 8.9
2014-Jul-16 20:33N 49°29' W 124°11'0 0.0
2014-Jul-15 22:06N 49°29' W 124°11'2 4.4
2014-Jul-15 21:33N 49°29' W 124°08'6 6.0
2014-Jul-15 20:33N 49°35' W 124°06'4 0.1
2014-Jul-13 19:15N 49°38' W 124°02'2 3.5
2014-Jul-13 18:33N 49°37' W 124°05'7 6.9
2014-Jul-13 17:33N 49°31' W 123°59'1 0.0
2014-Jul-12 23:33N 49°31' W 124°00'7 6.7
2014-Jul-12 22:34N 49°30' W 124°10'2 0.1
2014-Jul-11 22:33N 49°28' W 124°08'9 8.7
2014-Jul-11 21:33N 49°21' W 123°60'8 8.1
2014-Jul-11 20:33N 49°14' W 123°55'  

Dump ship's entire track history